createdAt,value
2023-05-21T00:00:46.355Z,1.05
2023-05-21T00:01:50.447Z,1.08
2023-05-21T00:02:53.166Z,1.00
2023-05-21T00:03:55.908Z,0.85
2023-05-21T00:04:58.708Z,0.88
2023-05-21T00:06:04.206Z,0.93
2023-05-21T00:07:07.375Z,0.90
2023-05-21T00:08:10.079Z,0.75
2023-05-21T00:09:13.459Z,1.08
2023-05-21T00:10:16.133Z,1.73
2023-05-21T00:11:18.804Z,1.50
2023-05-21T00:12:21.494Z,1.13
2023-05-21T00:13:24.197Z,0.82
2023-05-21T00:14:27.146Z,0.93
2023-05-21T00:15:29.884Z,1.42
2023-05-21T00:16:32.692Z,1.02
2023-05-21T00:17:37.361Z,1.83
2023-05-21T00:18:39.999Z,0.82
2023-05-21T00:19:42.659Z,0.73
2023-05-21T00:20:46.258Z,1.15
2023-05-21T00:22:51.484Z,1.13
2023-05-21T00:23:54.921Z,0.80
2023-05-21T00:24:57.574Z,0.93
2023-05-21T00:26:00.688Z,1.17
2023-05-21T00:27:03.416Z,0.90
2023-05-21T00:28:06.205Z,1.30
2023-05-21T00:29:08.851Z,1.25
2023-05-21T00:30:11.640Z,0.93
2023-05-21T00:31:14.412Z,1.55
2023-05-21T00:32:17.059Z,1.00
2023-05-21T00:33:22.290Z,1.13
2023-05-21T00:34:24.950Z,1.70
2023-05-21T00:35:27.663Z,1.27
2023-05-21T00:36:31.798Z,1.50
2023-05-21T00:37:34.925Z,1.02
2023-05-21T00:38:38.673Z,1.02
2023-05-21T00:39:41.609Z,0.63
2023-05-21T00:40:44.426Z,0.73
2023-05-21T00:41:49.117Z,1.08
2023-05-21T00:42:51.877Z,0.88
2023-05-21T00:43:54.603Z,1.08
2023-05-21T00:44:58.268Z,1.05
2023-05-21T00:46:01.139Z,1.95
2023-05-21T00:47:05.510Z,1.02
2023-05-21T00:48:08.978Z,1.55
2023-05-21T00:49:15.455Z,1.83
2023-05-21T00:50:18.192Z,1.00
2023-05-21T00:51:22.087Z,1.40
2023-05-21T00:52:27.410Z,0.73
2023-05-21T00:53:30.746Z,1.02
2023-05-21T00:54:33.494Z,0.82
2023-05-21T00:55:38.334Z,2.05
2023-05-21T00:56:41.314Z,1.88
2023-05-21T00:57:44.139Z,1.05
2023-05-21T00:58:48.392Z,1.45
2023-05-21T00:59:53.669Z,1.15
2023-05-21T01:00:57.147Z,0.98
2023-05-21T01:02:04.808Z,1.02
2023-05-21T01:03:07.804Z,0.52
2023-05-21T01:04:10.605Z,1.08
2023-05-21T01:05:13.664Z,1.65
2023-05-21T01:06:16.611Z,0.70
2023-05-21T01:07:19.310Z,0.88
2023-05-21T01:08:24.729Z,1.52
2023-05-21T01:09:28.171Z,1.48
2023-05-21T01:10:31.556Z,1.02
2023-05-21T01:11:48.332Z,1.08
2023-05-21T01:12:53.234Z,0.98
2023-05-21T01:13:56.557Z,1.25
2023-05-21T01:15:02.803Z,0.55
2023-05-21T01:16:09.878Z,1.30
2023-05-21T01:17:13.570Z,1.15
2023-05-21T01:18:16.564Z,0.93
2023-05-21T01:19:24.868Z,1.27
2023-05-21T01:20:30.958Z,0.73
2023-05-21T01:21:42.081Z,1.13
2023-05-21T01:22:55.406Z,0.73
2023-05-21T01:23:58.946Z,1.65
2023-05-21T01:26:07.836Z,0.75
2023-05-21T01:27:11.053Z,1.33
2023-05-21T01:28:14.696Z,0.82
2023-05-21T01:29:17.405Z,0.63
2023-05-21T01:30:21.747Z,0.88
2023-05-21T01:31:32.631Z,0.73
2023-05-21T01:34:47.997Z,1.05
2023-05-21T01:35:59.269Z,0.93
2023-05-21T01:37:22.460Z,0.77
2023-05-21T01:39:02.178Z,0.75
2023-05-21T01:40:12.562Z,0.98
2023-05-21T01:41:19.441Z,0.93
2023-05-21T01:42:24.730Z,0.85
2023-05-21T01:43:30.035Z,0.82
2023-05-21T01:44:34.331Z,0.85
2023-05-21T01:45:41.229Z,0.80
2023-05-21T01:46:44.118Z,0.73
2023-05-21T01:47:50.092Z,0.80
2023-05-21T01:48:55.657Z,0.95
2023-05-21T01:49:59.264Z,0.57
2023-05-21T01:51:04.844Z,0.95
2023-05-21T01:52:07.725Z,1.10
2023-05-21T01:53:10.389Z,0.85
2023-05-21T01:54:13.131Z,1.48
2023-05-21T01:55:15.859Z,1.40
2023-05-21T01:56:18.541Z,1.85
2023-05-21T01:57:22.142Z,0.93
2023-05-21T01:59:28.398Z,0.52
2023-05-21T02:01:35.595Z,0.73
2023-05-21T02:02:38.345Z,0.65
2023-05-21T02:03:41.220Z,1.55
2023-05-21T02:04:44.721Z,1.73
2023-05-21T02:05:47.796Z,1.00
2023-05-21T02:06:50.462Z,1.02
2023-05-21T02:07:53.325Z,0.82
2023-05-21T02:08:56.184Z,0.65
2023-05-21T02:09:58.869Z,1.63
2023-05-21T02:11:01.529Z,1.00
2023-05-21T02:12:04.604Z,1.80
2023-05-21T02:13:07.320Z,0.70
2023-05-21T02:14:10.951Z,0.93
2023-05-21T02:15:18.429Z,1.00
2023-05-21T02:16:22.950Z,0.63
2023-05-21T02:17:25.794Z,1.00
2023-05-21T02:18:29.789Z,1.45
2023-05-21T02:19:32.627Z,0.85
2023-05-21T02:20:35.348Z,1.65
2023-05-21T02:21:38.058Z,0.82
2023-05-21T02:22:45.454Z,0.90
2023-05-21T02:23:48.112Z,1.15
2023-05-21T02:24:50.739Z,1.23
2023-05-21T02:25:53.362Z,1.25
2023-05-21T02:26:56.246Z,1.15
2023-05-21T02:27:58.955Z,1.30
2023-05-21T02:29:01.691Z,1.10
2023-05-21T02:30:05.823Z,0.75
2023-05-21T02:31:08.481Z,1.13
2023-05-21T02:32:12.315Z,1.20
2023-05-21T02:33:16.813Z,0.73
2023-05-21T02:34:21.064Z,0.82
2023-05-21T02:35:23.840Z,1.27
2023-05-21T02:36:27.064Z,0.82
2023-05-21T02:37:29.922Z,0.63
2023-05-21T02:38:33.169Z,0.68
2023-05-21T02:39:35.854Z,0.95
2023-05-21T02:40:38.477Z,1.15
2023-05-21T02:41:41.174Z,1.17
2023-05-21T02:42:43.916Z,0.82
2023-05-21T02:43:46.609Z,1.15
2023-05-21T02:44:49.362Z,1.67
2023-05-21T02:45:52.192Z,1.17
2023-05-21T02:46:55.081Z,1.20
2023-05-21T02:47:58.186Z,1.17
2023-05-21T02:49:00.862Z,1.13
2023-05-21T02:50:03.617Z,1.38
2023-05-21T02:51:06.394Z,0.88
2023-05-21T02:52:09.254Z,2.10
2023-05-21T02:53:11.998Z,0.88
2023-05-21T02:54:15.510Z,1.23
2023-05-21T02:55:18.185Z,1.08
2023-05-21T02:56:20.871Z,1.05
2023-05-21T02:57:23.521Z,1.00
2023-05-21T02:58:26.216Z,1.35
2023-05-21T02:59:28.928Z,1.40
2023-05-21T03:00:31.685Z,1.25
2023-05-21T03:01:34.380Z,1.77
2023-05-21T03:02:37.249Z,1.27
2023-05-21T03:03:40.033Z,2.20
2023-05-21T03:04:46.756Z,0.73
2023-05-21T03:05:49.548Z,0.77
2023-05-21T03:06:55.687Z,1.63
2023-05-21T03:07:58.441Z,0.82
2023-05-21T03:09:01.128Z,1.15
2023-05-21T03:10:03.840Z,1.10
2023-05-21T03:11:09.805Z,1.15
2023-05-21T03:12:12.595Z,0.95
2023-05-21T03:13:15.247Z,0.90
2023-05-21T03:14:17.925Z,1.13
2023-05-21T03:15:24.466Z,1.17
2023-05-21T03:16:27.155Z,1.50
2023-05-21T03:17:29.881Z,1.13
2023-05-21T03:18:32.590Z,0.93
2023-05-21T03:19:36.531Z,1.35
2023-05-21T03:20:59.174Z,2.72
2023-05-21T03:22:02.839Z,1.73
2023-05-21T03:23:06.306Z,1.35
2023-05-21T03:24:08.960Z,1.23
2023-05-21T03:25:12.898Z,1.05
2023-05-21T03:26:15.969Z,1.45
2023-05-21T03:27:18.796Z,1.70
2023-05-21T03:28:21.548Z,1.25
2023-05-21T03:29:24.211Z,2.17
2023-05-21T03:30:26.857Z,1.30
2023-05-21T03:31:29.552Z,1.48
2023-05-21T03:32:34.466Z,3.17
2023-05-21T03:33:37.167Z,1.80
2023-05-21T03:34:39.839Z,2.20
2023-05-21T03:35:42.613Z,0.90
2023-05-21T03:36:45.264Z,1.35
2023-05-21T03:37:47.999Z,1.33
2023-05-21T03:38:50.671Z,1.25
2023-05-21T03:39:53.414Z,1.15
2023-05-21T03:40:56.339Z,1.13
2023-05-21T03:41:58.986Z,1.33
2023-05-21T03:43:01.614Z,1.10
2023-05-21T03:44:04.472Z,1.40
2023-05-21T03:45:07.681Z,2.28
2023-05-21T03:46:10.427Z,1.70
2023-05-21T03:47:13.215Z,1.00
2023-05-21T03:48:16.466Z,0.80
2023-05-21T03:49:20.917Z,0.98
2023-05-21T03:50:23.569Z,1.08
2023-05-21T03:51:26.450Z,1.33
2023-05-21T03:52:29.262Z,1.35
2023-05-21T03:53:34.533Z,1.35
2023-05-21T03:54:37.214Z,1.00
2023-05-21T03:55:40.309Z,1.80
2023-05-21T03:56:42.973Z,1.50
2023-05-21T03:57:45.760Z,0.88
2023-05-21T03:58:48.536Z,1.13
2023-05-21T03:59:51.488Z,3.00
2023-05-21T04:00:54.248Z,1.00
2023-05-21T04:01:56.881Z,1.38
2023-05-21T04:02:59.952Z,0.95
2023-05-21T04:04:02.961Z,0.88
2023-05-21T04:05:06.101Z,1.02
2023-05-21T04:06:10.643Z,1.60
2023-05-21T04:07:15.902Z,0.77
2023-05-21T04:08:18.548Z,1.73
2023-05-21T04:09:21.424Z,0.82
2023-05-21T04:10:24.065Z,1.75
2023-05-21T04:11:26.791Z,0.73
2023-05-21T04:12:29.461Z,1.02
2023-05-21T04:13:32.174Z,1.08
2023-05-21T04:14:34.968Z,2.83
2023-05-21T04:15:39.283Z,1.02
2023-05-21T04:16:44.597Z,1.95
2023-05-21T04:17:47.473Z,1.15
2023-05-21T04:18:50.294Z,1.02
2023-05-21T04:19:52.999Z,0.73
2023-05-21T04:20:55.718Z,1.10
2023-05-21T04:22:01.565Z,1.20
2023-05-21T04:23:04.189Z,1.00
2023-05-21T04:24:07.004Z,1.00
2023-05-21T04:25:10.113Z,2.05
2023-05-21T04:26:13.289Z,0.85
2023-05-21T04:27:17.245Z,1.38
2023-05-21T04:28:20.674Z,2.00
2023-05-21T04:29:23.455Z,1.42
2023-05-21T04:30:26.262Z,1.02
2023-05-21T04:31:28.993Z,1.13
2023-05-21T04:32:33.845Z,1.23
2023-05-21T04:33:36.657Z,1.33
2023-05-21T04:34:40.241Z,1.73
2023-05-21T04:36:47.858Z,1.70
2023-05-21T04:37:51.021Z,1.63
2023-05-21T04:38:53.913Z,1.10
2023-05-21T04:39:56.619Z,1.63
2023-05-21T04:40:59.372Z,1.42
2023-05-21T04:42:03.621Z,1.40
2023-05-21T04:43:06.285Z,2.10
2023-05-21T04:44:09.489Z,1.73
2023-05-21T04:45:12.435Z,2.30
2023-05-21T04:46:15.416Z,1.75
2023-05-21T04:47:21.735Z,2.28
2023-05-21T04:48:27.334Z,2.08
2023-05-21T04:49:30.577Z,2.83
2023-05-21T04:50:34.240Z,1.88
2023-05-21T04:51:38.389Z,2.15
2023-05-21T04:52:41.140Z,2.53
2023-05-21T04:53:43.846Z,2.80
2023-05-21T04:54:46.480Z,2.83
2023-05-21T04:55:49.157Z,2.97
2023-05-21T04:56:51.876Z,2.58
2023-05-21T04:57:54.531Z,2.40
2023-05-21T04:58:59.264Z,3.33
2023-05-21T05:00:04.302Z,2.58
2023-05-21T05:01:07.068Z,2.50
2023-05-21T05:02:14.861Z,3.70
2023-05-21T05:03:17.650Z,2.22
2023-05-21T05:04:20.357Z,3.05
2023-05-21T05:05:23.078Z,3.28
2023-05-21T05:06:26.482Z,2.13
2023-05-21T05:07:29.150Z,2.08
2023-05-21T05:08:32.121Z,2.80
2023-05-21T05:09:34.787Z,2.50
2023-05-21T05:10:37.431Z,3.00
2023-05-21T05:11:40.123Z,2.05
2023-05-21T05:12:42.845Z,2.35
2023-05-21T05:13:45.543Z,2.38
2023-05-21T05:14:48.241Z,3.20
2023-05-21T05:15:52.533Z,2.72
2023-05-21T05:17:00.385Z,2.35
2023-05-21T05:18:03.138Z,4.30
2023-05-21T05:19:05.891Z,2.65
2023-05-21T05:20:10.493Z,2.83
2023-05-21T05:21:13.181Z,3.03
2023-05-21T05:22:15.880Z,3.08
2023-05-21T05:23:18.660Z,3.05
2023-05-21T05:24:21.475Z,2.80
2023-05-21T05:25:24.206Z,2.67
2023-05-21T05:26:27.321Z,2.97
2023-05-21T05:27:29.958Z,2.25
2023-05-21T05:28:32.655Z,3.75
2023-05-21T05:29:35.302Z,3.38
2023-05-21T05:30:38.143Z,2.65
2023-05-21T05:31:40.879Z,3.22
2023-05-21T05:32:43.594Z,3.03
2023-05-21T05:33:46.692Z,2.50
2023-05-21T05:34:49.374Z,3.72
2023-05-21T05:35:52.084Z,2.03
2023-05-21T05:36:54.723Z,3.13
2023-05-21T05:37:57.553Z,3.45
2023-05-21T05:39:00.283Z,2.35
2023-05-21T05:40:02.961Z,2.55
2023-05-21T05:41:05.750Z,2.90
2023-05-21T05:42:08.437Z,2.53
2023-05-21T05:43:11.325Z,2.88
2023-05-21T05:44:14.022Z,2.55
2023-05-21T05:45:16.732Z,3.17
2023-05-21T05:46:19.443Z,4.40
2023-05-21T05:47:22.741Z,3.22
2023-05-21T05:48:25.771Z,2.20
2023-05-21T05:49:28.426Z,2.55
2023-05-21T05:50:31.063Z,1.35
2023-05-21T05:51:33.828Z,2.90
2023-05-21T05:52:36.451Z,2.78
2023-05-21T05:53:39.066Z,3.72
2023-05-21T05:54:41.790Z,2.53
2023-05-21T05:55:44.485Z,2.55
2023-05-21T05:56:47.104Z,2.70
2023-05-21T05:57:49.762Z,2.88
2023-05-21T05:58:52.395Z,2.65
2023-05-21T05:59:55.061Z,2.88
2023-05-21T06:00:57.960Z,2.83
2023-05-21T06:02:01.768Z,2.30
2023-05-21T06:03:04.724Z,2.55
2023-05-21T06:04:07.423Z,2.25
2023-05-21T06:05:10.640Z,2.00
2023-05-21T06:06:13.653Z,2.40
2023-05-21T06:07:16.557Z,2.03
2023-05-21T06:08:19.228Z,2.28
2023-05-21T06:09:22.674Z,3.00
2023-05-21T06:10:25.361Z,3.03
2023-05-21T06:11:28.041Z,2.60
2023-05-21T06:12:30.668Z,2.20
2023-05-21T06:13:33.409Z,2.45
2023-05-21T06:14:36.089Z,2.38
2023-05-21T06:15:39.896Z,2.55
2023-05-21T06:16:42.680Z,2.35
2023-05-21T06:17:45.498Z,2.95
2023-05-21T06:18:48.217Z,2.15
2023-05-21T06:19:51.066Z,2.95
2023-05-21T06:20:53.765Z,2.72
2023-05-21T06:21:56.415Z,2.00
2023-05-21T06:22:59.075Z,2.55
2023-05-21T06:24:01.722Z,2.55
2023-05-21T06:25:04.973Z,3.63
2023-05-21T06:26:07.744Z,2.33
2023-05-21T06:27:10.436Z,1.95
2023-05-21T06:28:13.230Z,1.95
2023-05-21T06:29:17.610Z,2.17
2023-05-21T06:30:20.358Z,2.28
2023-05-21T06:31:23.106Z,2.80
2023-05-21T06:32:26.325Z,1.88
2023-05-21T06:33:29.040Z,2.15
2023-05-21T06:34:31.720Z,2.38
2023-05-21T06:35:37.782Z,1.80
2023-05-21T06:36:40.648Z,3.05
2023-05-21T06:37:43.734Z,2.53
2023-05-21T06:38:47.367Z,2.50
2023-05-21T06:40:52.461Z,1.95
2023-05-21T06:41:55.198Z,1.75
2023-05-21T06:42:58.505Z,1.80
2023-05-21T06:44:01.183Z,2.38
2023-05-21T06:45:03.931Z,2.28
2023-05-21T06:46:06.650Z,2.85
2023-05-21T06:47:09.401Z,1.92
2023-05-21T06:48:13.063Z,4.18
2023-05-21T06:49:15.973Z,2.85
2023-05-21T06:50:18.807Z,2.75
2023-05-21T06:51:21.899Z,2.72
2023-05-21T06:52:24.696Z,2.40
2023-05-21T06:53:27.337Z,3.17
2023-05-21T06:54:30.050Z,2.88
2023-05-21T06:55:32.672Z,2.20
2023-05-21T06:56:35.346Z,2.95
2023-05-21T06:57:39.433Z,1.90
2023-05-21T06:58:42.112Z,2.35
2023-05-21T06:59:45.141Z,1.83
2023-05-21T07:00:48.141Z,2.35
2023-05-21T07:01:50.811Z,2.80
2023-05-21T07:02:53.763Z,3.65
2023-05-21T07:03:56.433Z,1.65
2023-05-21T07:04:59.063Z,2.28
2023-05-21T07:06:01.758Z,1.75
2023-05-21T07:07:05.186Z,2.42
2023-05-21T07:08:08.624Z,2.33
2023-05-21T07:09:12.509Z,2.95
2023-05-21T07:10:15.203Z,2.80
2023-05-21T07:11:17.829Z,2.47
2023-05-21T07:12:20.487Z,1.95
2023-05-21T07:13:23.219Z,2.50
2023-05-21T07:14:29.037Z,3.17
2023-05-21T07:15:31.682Z,2.20
2023-05-21T07:16:34.402Z,2.17
2023-05-21T07:17:38.059Z,2.05
2023-05-21T07:21:47.902Z,2.05
2023-05-21T07:22:50.538Z,2.53
2023-05-21T07:23:53.218Z,2.60
2023-05-21T07:24:56.266Z,2.42
2023-05-21T07:25:58.901Z,2.28
2023-05-21T07:27:04.631Z,3.05
2023-05-21T07:28:11.547Z,2.50
2023-05-21T07:29:14.281Z,2.60
2023-05-21T07:30:17.245Z,1.48
2023-05-21T07:31:19.937Z,2.25
2023-05-21T07:32:22.798Z,3.00
2023-05-21T07:33:25.472Z,3.17
2023-05-21T07:34:28.156Z,1.92
2023-05-21T07:35:30.820Z,2.17
2023-05-21T07:36:34.262Z,2.33
2023-05-21T07:37:37.018Z,2.30
2023-05-21T07:38:40.688Z,4.65
2023-05-21T07:48:02.297Z,1.33
2023-05-21T07:49:05.047Z,2.83
2023-05-21T07:50:08.071Z,2.55
2023-05-21T07:51:12.093Z,2.35
2023-05-21T07:52:14.733Z,2.40
2023-05-21T07:53:17.460Z,2.33
2023-05-21T07:54:20.256Z,1.58
2023-05-21T07:55:22.992Z,2.55
2023-05-21T07:56:25.729Z,2.05
2023-05-21T07:57:28.717Z,2.17
2023-05-21T07:58:31.602Z,2.00
2023-05-21T07:59:34.289Z,2.05
2023-05-21T08:00:45.487Z,3.17
2023-05-21T08:01:48.228Z,1.50
2023-05-21T08:02:51.030Z,2.17
2023-05-21T08:03:53.909Z,2.97
2023-05-21T08:04:56.781Z,2.30
2023-05-21T08:05:59.505Z,2.25
2023-05-21T08:07:02.372Z,2.17
2023-05-21T08:08:06.037Z,3.35
2023-05-21T08:10:11.857Z,2.20
2023-05-21T08:11:14.600Z,2.50
2023-05-21T08:12:17.499Z,2.92
2023-05-21T08:13:20.351Z,2.35
2023-05-21T08:14:22.990Z,1.73
2023-05-21T08:15:25.635Z,2.75
2023-05-21T08:16:30.206Z,1.73
2023-05-21T08:17:32.862Z,2.03
2023-05-21T08:18:35.500Z,1.73
2023-05-21T08:19:38.283Z,2.47
2023-05-21T08:20:41.904Z,1.50
2023-05-21T08:21:44.670Z,2.22
2023-05-21T08:22:47.370Z,1.95
2023-05-21T08:23:50.015Z,1.80
2023-05-21T08:24:53.121Z,2.80
2023-05-21T08:25:55.855Z,1.23
2023-05-21T08:26:58.559Z,3.33
2023-05-21T08:28:01.280Z,1.73
2023-05-21T08:29:03.963Z,2.30
2023-05-21T08:30:07.596Z,1.98
2023-05-21T08:31:10.304Z,2.40
2023-05-21T08:32:13.020Z,2.22
2023-05-21T08:33:15.801Z,2.90
2023-05-21T08:34:21.514Z,2.67
2023-05-21T08:35:24.156Z,2.58
2023-05-21T08:36:26.822Z,2.08
2023-05-21T08:37:29.883Z,2.10
2023-05-21T08:38:32.879Z,2.00
2023-05-21T08:39:35.592Z,1.88
2023-05-21T08:40:38.399Z,1.55
2023-05-21T08:41:42.152Z,3.10
2023-05-21T08:42:49.681Z,1.65
2023-05-21T08:44:00.400Z,1.80
2023-05-21T08:45:07.256Z,1.98
2023-05-21T08:46:10.560Z,1.42
2023-05-21T08:47:17.335Z,1.90
2023-05-21T08:48:22.959Z,2.15
2023-05-21T08:49:31.762Z,1.63
2023-05-21T08:50:34.409Z,1.27
2023-05-21T08:51:37.250Z,1.88
2023-05-21T08:52:39.972Z,1.73
2023-05-21T08:53:42.986Z,2.47
2023-05-21T08:54:46.938Z,1.65
2023-05-21T08:55:52.279Z,1.50
2023-05-21T08:56:57.291Z,2.15
2023-05-21T08:57:59.984Z,2.10
2023-05-21T08:59:03.579Z,2.55
2023-05-21T09:01:11.759Z,1.52
2023-05-21T09:02:14.850Z,1.38
2023-05-21T09:03:17.846Z,1.83
2023-05-21T09:04:22.025Z,2.03
2023-05-21T09:05:26.208Z,1.73
2023-05-21T09:06:29.519Z,2.95
2023-05-21T09:07:35.129Z,2.20
2023-05-21T09:08:42.882Z,1.48
2023-05-21T09:09:55.524Z,1.63
2023-05-21T09:10:58.236Z,1.55
2023-05-21T09:12:01.414Z,2.03
2023-05-21T09:13:05.043Z,1.88
2023-05-21T09:15:11.127Z,1.45
2023-05-21T09:16:13.787Z,1.60
2023-05-21T09:17:16.970Z,2.45
2023-05-21T09:18:19.630Z,1.83
2023-05-21T09:19:23.027Z,1.33
2023-05-21T09:20:27.399Z,2.78
2023-05-21T09:21:31.956Z,1.40
2023-05-21T09:22:34.778Z,1.25
2023-05-21T09:23:37.420Z,2.13
2023-05-21T09:24:40.165Z,1.40
2023-05-21T09:25:46.304Z,1.67
2023-05-21T09:26:49.053Z,1.63
2023-05-21T09:27:52.199Z,1.73
2023-05-21T09:29:00.024Z,1.20
2023-05-21T09:30:09.872Z,1.52
2023-05-21T09:33:27.532Z,1.23
2023-05-21T09:34:30.251Z,1.35
2023-05-21T09:35:35.640Z,1.60
2023-05-21T09:36:39.175Z,2.05
2023-05-21T09:37:46.727Z,2.00
2023-05-21T09:38:50.176Z,1.73
2023-05-21T09:39:52.931Z,2.03
2023-05-21T09:40:58.835Z,1.23
2023-05-21T09:42:01.769Z,1.35
2023-05-21T09:43:05.724Z,1.35
2023-05-21T09:44:08.600Z,1.50
2023-05-21T09:45:12.180Z,3.10
2023-05-21T09:48:42.542Z,2.05
2023-05-21T09:49:45.303Z,1.45
2023-05-21T09:50:47.972Z,1.48
2023-05-21T09:51:50.880Z,1.75
2023-05-21T09:52:53.842Z,1.08
2023-05-21T09:53:59.555Z,1.95
2023-05-21T09:55:03.568Z,1.08
2023-05-21T09:56:06.431Z,1.70
2023-05-21T09:57:09.182Z,1.60
2023-05-21T09:58:11.851Z,1.35
2023-05-21T09:59:14.488Z,1.55
2023-05-21T10:00:29.254Z,1.48
2023-05-21T10:01:36.518Z,0.82
2023-05-21T10:02:45.341Z,1.83
2023-05-21T10:03:55.695Z,2.13
2023-05-21T10:04:58.892Z,1.52
2023-05-21T10:06:01.836Z,1.23
2023-05-21T10:07:04.703Z,1.23
2023-05-21T10:08:09.897Z,1.15
2023-05-21T10:09:13.782Z,1.13
2023-05-21T10:10:17.281Z,1.38
2023-05-21T10:11:23.678Z,1.48
2023-05-21T10:12:29.252Z,1.98
2023-05-21T10:13:34.919Z,1.92
2023-05-21T10:14:37.893Z,1.35
2023-05-21T10:15:45.665Z,1.77
2023-05-21T10:16:49.051Z,2.72
2023-05-21T10:17:54.063Z,1.42
2023-05-21T10:18:58.618Z,1.90
2023-05-21T10:20:02.928Z,2.22
2023-05-21T10:21:07.713Z,1.65
2023-05-21T10:22:11.076Z,1.15
2023-05-21T10:23:14.753Z,0.90
2023-05-21T10:25:21.643Z,0.88
2023-05-21T10:26:28.782Z,1.00
2023-05-21T10:27:33.125Z,1.58
2023-05-21T10:28:37.022Z,1.70
2023-05-21T10:29:40.910Z,1.23
2023-05-21T10:30:44.047Z,1.50
2023-05-21T10:31:50.256Z,3.13
2023-05-21T10:32:53.835Z,1.15
2023-05-21T10:35:01.711Z,0.90
2023-05-21T10:36:04.936Z,0.73
2023-05-21T10:37:10.485Z,1.00
2023-05-21T10:38:15.180Z,1.92
2023-05-21T10:39:20.422Z,0.93
2023-05-21T10:40:23.121Z,1.10
2023-05-21T10:41:28.738Z,1.20
2023-05-21T10:42:34.322Z,1.15
2023-05-21T10:43:44.846Z,1.10
2023-05-21T10:44:59.017Z,1.35
2023-05-21T10:46:32.480Z,1.27
2023-05-21T10:48:07.391Z,1.77
2023-05-21T10:49:12.728Z,1.17
2023-05-21T10:50:33.212Z,1.05
2023-05-21T10:52:00.790Z,1.33
2023-05-21T10:53:17.512Z,0.80
2023-05-21T10:54:20.099Z,1.25
2023-05-21T10:55:25.700Z,0.73
2023-05-21T10:56:54.298Z,0.82
2023-05-21T10:59:40.682Z,1.05
2023-05-21T11:00:44.519Z,1.65
2023-05-21T11:01:47.452Z,1.30
2023-05-21T11:02:53.391Z,1.50
2023-05-21T11:03:56.581Z,0.82
2023-05-21T11:05:00.887Z,1.05
2023-05-21T11:06:06.875Z,1.30
2023-05-21T11:07:09.770Z,1.00
2023-05-21T11:08:32.144Z,1.20
2023-05-21T11:10:40.293Z,0.77
2023-05-21T11:11:45.432Z,0.73
2023-05-21T11:13:13.909Z,0.80
2023-05-21T11:14:36.243Z,1.00
2023-05-21T11:17:00.756Z,1.00
2023-05-21T11:18:03.562Z,1.08
2023-05-21T11:19:06.404Z,0.75
2023-05-21T11:20:17.329Z,1.23
2023-05-21T11:21:23.059Z,0.68
2023-05-21T11:22:28.215Z,1.02
2023-05-21T11:23:52.363Z,0.80
2023-05-21T11:24:56.626Z,0.55
2023-05-21T11:26:02.840Z,0.60
2023-05-21T11:27:07.365Z,0.90
2023-05-21T11:28:10.133Z,0.75
2023-05-21T11:29:12.961Z,1.08
2023-05-21T11:30:17.952Z,0.73
2023-05-21T11:31:27.477Z,0.45
2023-05-21T11:32:30.391Z,1.27
2023-05-21T11:33:34.531Z,1.27
2023-05-21T11:34:46.401Z,1.20
2023-05-21T11:35:48.960Z,0.70
2023-05-21T11:37:17.656Z,2.10
2023-05-21T11:38:20.381Z,1.05
2023-05-21T11:39:26.412Z,0.73
2023-05-21T11:40:31.094Z,0.52
2023-05-21T11:42:02.432Z,0.73
2023-05-21T11:43:06.866Z,0.60
2023-05-21T11:44:09.849Z,0.80
2023-05-21T11:45:12.563Z,1.00
2023-05-21T11:46:15.474Z,0.80
2023-05-21T11:47:21.659Z,0.82
2023-05-21T11:48:29.407Z,0.95
2023-05-21T11:49:33.533Z,1.23
2023-05-21T11:50:37.626Z,0.95
2023-05-21T11:51:41.548Z,1.13
2023-05-21T11:52:45.854Z,0.55
2023-05-21T11:53:49.474Z,0.95
2023-05-21T11:56:03.223Z,1.25
2023-05-21T11:57:09.716Z,0.52
2023-05-21T11:58:14.960Z,1.25
2023-05-21T11:59:18.830Z,1.27
2023-05-21T12:00:22.185Z,0.98
2023-05-21T12:01:28.228Z,0.63
2023-05-21T12:02:34.232Z,0.85
2023-05-21T12:03:37.075Z,0.68
2023-05-21T12:04:39.889Z,1.13
2023-05-21T12:05:47.265Z,2.17
2023-05-21T12:06:51.128Z,1.17
2023-05-21T12:07:55.038Z,1.10
2023-05-21T12:08:58.738Z,0.90
2023-05-21T12:10:01.677Z,0.85
2023-05-21T12:11:04.447Z,0.77
2023-05-21T12:12:08.988Z,1.13
2023-05-21T12:13:11.669Z,0.80
2023-05-21T12:14:15.288Z,2.15
2023-05-21T12:16:21.454Z,0.82
2023-05-21T12:17:26.315Z,0.70
2023-05-21T12:18:29.064Z,0.90
2023-05-21T12:19:36.300Z,0.77
2023-05-21T12:20:39.781Z,0.85
2023-05-21T12:21:43.122Z,1.77
2023-05-21T12:22:45.977Z,2.17
2023-05-21T12:23:48.620Z,1.52
2023-05-21T12:24:51.957Z,1.33
2023-05-21T12:25:55.146Z,0.85
2023-05-21T12:27:02.347Z,0.95
2023-05-21T12:28:05.947Z,0.75
2023-05-21T12:30:11.571Z,1.20
2023-05-21T12:31:17.070Z,0.77
2023-05-21T12:32:21.190Z,1.10
2023-05-21T12:33:26.436Z,1.08
2023-05-21T12:34:55.133Z,0.90
2023-05-21T12:35:57.850Z,1.55
2023-05-21T12:37:00.586Z,0.82
2023-05-21T12:38:04.183Z,0.68
2023-05-21T12:40:14.305Z,1.52
2023-05-21T12:41:17.897Z,1.13
2023-05-21T12:43:38.810Z,0.90
2023-05-21T12:44:48.381Z,1.17
2023-05-21T12:45:52.550Z,1.38
2023-05-21T12:46:55.476Z,1.25
2023-05-21T12:47:58.195Z,1.77
2023-05-21T12:49:00.921Z,1.45
2023-05-21T12:50:12.688Z,1.52
2023-05-21T12:51:15.349Z,1.67
2023-05-21T12:52:22.783Z,2.10
2023-05-21T12:53:25.428Z,1.95
2023-05-21T12:54:36.474Z,1.83
2023-05-21T12:55:39.272Z,1.65
2023-05-21T12:56:46.406Z,1.95
2023-05-21T12:57:49.234Z,1.58
2023-05-21T12:58:51.955Z,1.60
2023-05-21T12:59:58.114Z,1.83
2023-05-21T13:01:01.856Z,1.65
2023-05-21T13:02:05.936Z,1.60
2023-05-21T13:03:08.665Z,1.67
2023-05-21T13:04:11.451Z,1.55
2023-05-21T13:05:18.871Z,1.42
2023-05-21T13:06:21.523Z,2.25
2023-05-21T13:07:25.819Z,2.08
2023-05-21T13:08:28.780Z,1.85
2023-05-21T13:09:31.897Z,2.40
2023-05-21T13:10:34.867Z,2.10
2023-05-21T13:11:37.863Z,1.63
2023-05-21T13:12:42.938Z,1.63
2023-05-21T13:13:46.824Z,2.70
2023-05-21T13:14:51.462Z,1.77
2023-05-21T13:15:55.138Z,1.55
2023-05-21T13:16:58.498Z,1.10
2023-05-21T13:18:01.736Z,2.22
2023-05-21T13:19:04.489Z,1.98
2023-05-21T13:20:13.775Z,1.48
2023-05-21T13:21:16.436Z,2.28
2023-05-21T13:22:19.070Z,2.13
2023-05-21T13:23:21.748Z,2.00
2023-05-21T13:24:24.396Z,1.65
2023-05-21T13:25:30.883Z,2.25
2023-05-21T13:26:33.867Z,1.88
2023-05-21T13:27:36.617Z,1.65
2023-05-21T13:28:40.263Z,1.88
2023-05-21T13:29:44.478Z,2.00
2023-05-21T13:30:47.126Z,1.83
2023-05-21T13:31:49.805Z,1.25
2023-05-21T13:32:52.790Z,1.85
2023-05-21T13:33:55.519Z,2.17
2023-05-21T13:34:58.243Z,2.13
2023-05-21T13:36:00.904Z,1.40
2023-05-21T13:37:03.572Z,3.10
2023-05-21T13:38:06.241Z,1.63
2023-05-21T13:39:09.114Z,1.55
2023-05-21T13:40:16.803Z,1.90
2023-05-21T13:41:19.637Z,1.98
2023-05-21T13:42:22.481Z,2.10
2023-05-21T13:43:25.204Z,2.28
2023-05-21T13:44:27.853Z,1.33
2023-05-21T13:45:30.588Z,2.03
2023-05-21T13:46:33.527Z,1.88
2023-05-21T13:47:39.280Z,2.63
2023-05-21T13:48:43.793Z,1.73
2023-05-21T13:49:46.422Z,1.75
2023-05-21T13:50:49.109Z,1.85
2023-05-21T13:51:51.851Z,1.48
2023-05-21T13:52:54.515Z,2.22
2023-05-21T13:53:57.149Z,2.72
2023-05-21T13:55:00.224Z,2.45
2023-05-21T13:56:02.978Z,1.50
2023-05-21T13:57:05.825Z,1.70
2023-05-21T13:58:08.504Z,1.80
2023-05-21T13:59:11.153Z,1.42
2023-05-21T14:00:16.216Z,1.38
2023-05-21T14:01:19.077Z,1.80
2023-05-21T14:02:21.750Z,2.03
2023-05-21T14:03:24.505Z,2.30
2023-05-21T14:04:27.279Z,2.00
2023-05-21T14:05:29.974Z,1.77
2023-05-21T14:06:32.912Z,1.85
2023-05-21T14:07:35.550Z,2.28
2023-05-21T14:08:38.421Z,1.98
2023-05-21T14:09:41.290Z,1.85
2023-05-21T14:10:43.914Z,1.67
2023-05-21T14:11:46.885Z,3.22
2023-05-21T14:12:49.517Z,1.35
2023-05-21T14:13:52.210Z,2.47
2023-05-21T14:14:54.860Z,2.33
2023-05-21T14:15:57.502Z,2.53
2023-05-21T14:17:00.315Z,1.65
2023-05-21T14:18:08.205Z,1.88
2023-05-21T14:19:10.953Z,1.73
2023-05-21T14:20:13.775Z,2.03
2023-05-21T14:21:16.504Z,2.35
2023-05-21T14:22:19.144Z,2.17
2023-05-21T14:23:21.771Z,2.10
2023-05-21T14:24:24.436Z,2.60
2023-05-21T14:25:27.348Z,1.98
2023-05-21T14:26:30.080Z,2.00
2023-05-21T14:27:32.778Z,3.65
2023-05-21T14:28:35.419Z,2.20
2023-05-21T14:29:38.075Z,1.95
2023-05-21T14:30:40.740Z,1.92
2023-05-21T14:31:43.501Z,2.17
2023-05-21T14:32:46.316Z,3.72
2023-05-21T14:33:49.038Z,1.67
2023-05-21T14:34:51.721Z,1.73
2023-05-21T14:35:54.433Z,1.67
2023-05-21T14:36:57.063Z,3.63
2023-05-21T14:37:59.692Z,1.80
2023-05-21T14:39:02.388Z,1.73
2023-05-21T14:40:08.488Z,2.70
2023-05-21T14:41:11.160Z,1.60
2023-05-21T14:42:13.816Z,1.85
2023-05-21T14:43:16.530Z,1.73
2023-05-21T14:44:19.280Z,1.45
2023-05-21T14:45:21.985Z,1.75
2023-05-21T14:46:25.081Z,1.83
2023-05-21T14:47:27.958Z,2.50
2023-05-21T14:48:30.644Z,1.67
2023-05-21T14:49:33.453Z,2.47
2023-05-21T14:50:36.630Z,3.28
2023-05-21T14:51:39.289Z,2.72
2023-05-21T14:52:43.635Z,2.22
2023-05-21T14:53:46.351Z,1.83